Time;durP1;ratioP1;P1;durP2;ratioP2;P2;SDS_P1;SDS_P2;PMS_P1;PMS_P2;Temp;Humidity;BMP_temperature;BMP_pressure;BME280_temperature;BME280_humidity;BME280_pressure;Samples;Min_cycle;Max_cycle;Signal;HPM_P1;HPM_P2
2023/04/16 00:00:47;;;;;;;96.78;53.25;;;15.50;71.10;;;;;;4935726;28;97687;-47
2023/04/16 00:03:14;;;;;;;95.80;53.40;;;15.50;71.30;;;;;;4940890;28;90171;-51
2023/04/16 00:05:40;;;;;;;97.70;53.67;;;15.50;71.10;;;;;;4938378;28;93151;-50
2023/04/16 00:08:06;;;;;;;96.35;53.33;;;15.50;71.10;;;;;;4936052;28;90041;-50
2023/04/16 00:10:33;;;;;;;96.43;53.40;;;15.50;70.70;;;;;;4939724;28;90383;-50
2023/04/16 00:12:59;;;;;;;96.88;53.45;;;15.50;71.10;;;;;;4941291;28;96290;-52
2023/04/16 00:15:24;;;;;;;97.30;53.53;;;15.50;70.60;;;;;;4935134;28;90404;-51
2023/04/16 00:17:50;;;;;;;96.50;53.33;;;15.50;70.80;;;;;;4942652;28;90657;-49
2023/04/16 00:20:16;;;;;;;95.82;52.72;;;15.50;70.70;;;;;;4938846;28;90385;-52
2023/04/16 00:22:42;;;;;;;96.32;53.13;;;15.50;70.80;;;;;;4930575;28;90639;-48
2023/04/16 00:25:08;;;;;;;95.72;53.25;;;15.50;70.70;;;;;;4927582;28;95399;-49
2023/04/16 00:27:33;;;;;;;96.68;53.10;;;15.40;70.90;;;;;;4937199;28;92851;-52
2023/04/16 00:29:59;;;;;;;96.07;53.53;;;15.40;70.60;;;;;;4937010;28;94221;-48
2023/04/16 00:32:24;;;;;;;95.68;52.95;;;15.40;70.30;;;;;;4938648;28;92258;-50
2023/04/16 00:34:50;;;;;;;96.05;52.85;;;15.40;70.70;;;;;;4941116;28;89987;-52
2023/04/16 00:37:16;;;;;;;95.43;53.15;;;15.40;70.90;;;;;;4947435;28;91741;-48
2023/04/16 00:39:42;;;;;;;97.78;53.15;;;15.40;71.00;;;;;;4944517;28;92939;-47
2023/04/16 00:42:07;;;;;;;96.03;53.15;;;15.40;71.00;;;;;;4938667;28;90263;-50
2023/04/16 00:44:35;;;;;;;95.95;53.05;;;15.40;70.80;;;;;;4975139;28;92908;-53
2023/04/16 00:47:02;;;;;;;97.10;53.40;;;15.40;71.10;;;;;;4949845;28;92994;-52
2023/04/16 00:49:29;;;;;;;98.05;53.10;;;15.40;70.60;;;;;;4949329;28;89072;-49
2023/04/16 00:51:55;;;;;;;98.25;53.05;;;15.40;70.80;;;;;;4950986;28;90087;-52
2023/04/16 00:54:21;;;;;;;96.97;53.08;;;15.40;70.60;;;;;;4952221;28;89331;-52
2023/04/16 00:56:47;;;;;;;95.20;53.25;;;15.40;70.70;;;;;;4954867;28;89370;-48
2023/04/16 00:59:13;;;;;;;94.65;52.67;;;15.40;70.90;;;;;;4951275;28;89094;-49
2023/04/16 01:01:39;;;;;;;95.70;52.88;;;15.30;70.80;;;;;;4944706;28;91167;-47
2023/04/16 01:04:05;;;;;;;96.68;53.40;;;15.30;70.70;;;;;;4948773;28;95553;-47
2023/04/16 01:06:31;;;;;;;96.32;52.92;;;15.30;70.80;;;;;;4948876;28;89615;-51
2023/04/16 01:08:57;;;;;;;95.88;53.13;;;15.30;70.80;;;;;;4953053;28;89736;-54
2023/04/16 01:11:23;;;;;;;94.65;52.95;;;15.30;70.90;;;;;;4952347;28;89599;-47
2023/04/16 01:13:49;;;;;;;96.03;53.50;;;15.30;70.90;;;;;;4950703;28;89628;-51
2023/04/16 01:16:15;;;;;;;94.93;52.58;;;15.30;70.80;;;;;;4948999;28;90544;-50
2023/04/16 01:18:40;;;;;;;95.25;52.90;;;15.30;70.60;;;;;;4954970;28;89436;-52
2023/04/16 01:21:06;;;;;;;95.55;52.75;;;15.30;70.40;;;;;;4947908;28;91294;-48
2023/04/16 01:23:32;;;;;;;96.25;53.08;;;15.30;70.40;;;;;;4943011;28;90149;-51
2023/04/16 01:25:58;;;;;;;96.05;52.88;;;15.20;70.40;;;;;;4944155;28;94004;-54
2023/04/16 01:28:23;;;;;;;95.75;52.88;;;15.20;70.60;;;;;;4946425;28;89622;-50
2023/04/16 01:30:49;;;;;;;94.22;52.80;;;15.30;70.50;;;;;;4948011;28;96534;-48
2023/04/16 01:33:16;;;;;;;94.38;52.70;;;15.20;70.50;;;;;;4945899;28;91275;-51
2023/04/16 01:35:42;;;;;;;95.47;52.70;;;15.20;70.30;;;;;;4949172;28;89259;-49
2023/04/16 01:38:08;;;;;;;96.07;53.20;;;15.20;70.20;;;;;;4951671;28;89504;-48
2023/04/16 01:40:35;;;;;;;94.40;52.53;;;15.20;70.50;;;;;;4947851;28;90122;-51
2023/04/16 01:43:00;;;;;;;95.00;52.85;;;15.20;70.30;;;;;;4948863;28;89754;-51
2023/04/16 01:45:26;;;;;;;94.63;52.88;;;15.20;70.00;;;;;;4951458;28;89779;-53
2023/04/16 01:47:52;;;;;;;95.72;53.20;;;15.20;70.30;;;;;;4947098;28;89749;-51
2023/04/16 01:50:19;;;;;;;94.47;52.83;;;15.20;70.30;;;;;;4948123;28;91329;-51
2023/04/16 01:52:45;;;;;;;95.78;53.28;;;15.20;70.30;;;;;;4946980;28;90618;-49
2023/04/16 01:55:11;;;;;;;95.90;52.95;;;15.20;70.10;;;;;;4948689;28;89722;-52
2023/04/16 01:57:37;;;;;;;96.43;53.10;;;15.20;70.20;;;;;;4945846;28;89821;-50
2023/04/16 02:00:03;;;;;;;94.68;52.95;;;15.20;70.00;;;;;;4948061;28;89912;-51
2023/04/16 02:02:29;;;;;;;94.45;52.75;;;15.10;70.20;;;;;;4945365;28;89466;-47
2023/04/16 02:04:56;;;;;;;96.00;52.63;;;15.20;70.20;;;;;;4945569;28;89651;-47
2023/04/16 02:07:23;;;;;;;95.78;53.15;;;15.10;70.20;;;;;;4944713;28;93632;-49
2023/04/16 02:09:52;;;;;;;95.60;53.13;;;15.10;70.10;;;;;;4941226;28;94330;-48
2023/04/16 02:12:18;;;;;;;94.63;52.90;;;15.10;69.90;;;;;;4939457;28;91188;-48
2023/04/16 02:14:43;;;;;;;94.00;52.78;;;15.10;70.00;;;;;;4938504;28;91366;-51
2023/04/16 02:17:09;;;;;;;95.95;52.75;;;15.10;70.00;;;;;;4942470;28;90924;-53
2023/04/16 02:19:35;;;;;;;95.30;52.83;;;15.10;69.80;;;;;;4938807;28;95248;-47
2023/04/16 02:22:01;;;;;;;93.82;52.60;;;15.10;69.80;;;;;;4936234;28;90940;-50
2023/04/16 02:24:27;;;;;;;95.82;53.13;;;15.10;70.10;;;;;;4942123;28;89535;-50
2023/04/16 02:26:53;;;;;;;96.47;53.63;;;15.00;70.00;;;;;;4940821;28;92483;-49
2023/04/16 02:29:20;;;;;;;94.55;52.42;;;15.10;70.00;;;;;;4943888;28;90163;-50
2023/04/16 02:31:45;;;;;;;95.05;52.70;;;15.00;69.80;;;;;;4938488;28;90234;-52
2023/04/16 02:34:11;;;;;;;94.93;52.70;;;15.00;70.80;;;;;;4940450;28;89660;-50
2023/04/16 02:36:38;;;;;;;94.95;52.83;;;15.00;69.90;;;;;;4941738;28;89758;-48
2023/04/16 02:39:03;;;;;;;95.30;53.22;;;15.00;70.00;;;;;;4943741;28;95759;-48
2023/04/16 02:41:29;;;;;;;96.35;53.22;;;15.00;69.80;;;;;;4941010;28;92885;-52
2023/04/16 02:43:55;;;;;;;95.03;52.90;;;15.00;69.90;;;;;;4943767;28;90723;-49
2023/04/16 02:46:21;;;;;;;95.40;52.97;;;15.00;69.70;;;;;;4943977;28;89873;-47
2023/04/16 02:48:46;;;;;;;93.35;52.88;;;15.00;69.50;;;;;;4940017;28;93920;-49
2023/04/16 02:51:12;;;;;;;95.18;53.08;;;15.00;69.80;;;;;;4938745;28;90657;-52
2023/04/16 02:53:38;;;;;;;94.82;52.97;;;15.00;70.00;;;;;;4941228;28;89277;-50
2023/04/16 02:56:04;;;;;;;96.18;52.97;;;15.00;70.00;;;;;;4939717;28;88965;-47
2023/04/16 02:58:30;;;;;;;95.10;52.78;;;15.00;70.00;;;;;;4943111;28;90717;-51
2023/04/16 03:00:55;;;;;;;95.25;52.78;;;15.00;69.80;;;;;;4948882;28;90467;-51
2023/04/16 03:03:21;;;;;;;94.32;52.85;;;14.90;69.80;;;;;;4946429;28;90948;-47
2023/04/16 03:05:47;;;;;;;95.05;52.95;;;14.90;70.00;;;;;;4942914;28;89824;-48
2023/04/16 03:08:13;;;;;;;94.45;52.28;;;14.90;70.00;;;;;;4946788;28;90722;-49
2023/04/16 03:10:40;;;;;;;95.38;52.88;;;14.90;70.10;;;;;;4945771;28;90438;-51
2023/04/16 03:13:06;;;;;;;93.68;52.78;;;14.90;70.10;;;;;;4945656;28;91130;-52
2023/04/16 03:15:32;;;;;;;94.55;52.95;;;14.90;70.10;;;;;;4948934;28;90980;-48
2023/04/16 03:17:58;;;;;;;95.68;52.80;;;14.90;70.10;;;;;;4948925;28;90724;-49
2023/04/16 03:20:24;;;;;;;94.60;52.85;;;14.90;70.10;;;;;;4944326;28;92147;-48
2023/04/16 03:22:53;;;;;;;95.00;52.60;;;14.90;70.20;;;;;;4947261;28;89560;-52
2023/04/16 03:25:19;;;;;;;94.43;52.70;;;14.90;70.10;;;;;;4939536;28;94448;-49
2023/04/16 03:27:44;;;;;;;94.43;52.65;;;14.90;70.10;;;;;;4939608;28;91354;-48
2023/04/16 03:30:11;;;;;;;93.40;52.28;;;14.90;70.20;;;;;;4944624;28;89681;-49
2023/04/16 03:32:38;;;;;;;92.72;52.22;;;14.90;70.20;;;;;;4943686;28;89590;-50
2023/04/16 03:35:05;;;;;;;93.68;51.97;;;14.90;70.10;;;;;;4941658;28;91364;-48
2023/04/16 03:37:30;;;;;;;96.40;52.65;;;14.90;70.20;;;;;;4947780;28;94682;-47
2023/04/16 03:39:56;;;;;;;94.55;52.67;;;14.80;70.00;;;;;;4946227;28;92612;-48
2023/04/16 03:42:22;;;;;;;93.43;52.30;;;14.80;70.00;;;;;;4943515;28;95391;-52
2023/04/16 03:44:47;;;;;;;94.43;52.45;;;14.80;70.20;;;;;;4949446;28;89128;-51
2023/04/16 03:47:13;;;;;;;94.78;52.70;;;14.80;69.90;;;;;;4946776;28;94362;-50
2023/04/16 03:49:39;;;;;;;93.97;52.72;;;14.80;70.00;;;;;;4938723;28;92869;-52
2023/04/16 03:52:04;;;;;;;93.88;52.85;;;14.80;69.90;;;;;;4943575;28;91544;-51
2023/04/16 03:54:30;;;;;;;94.30;52.45;;;14.80;69.90;;;;;;4942107;28;90570;-47
2023/04/16 03:56:56;;;;;;;94.57;52.63;;;14.80;70.10;;;;;;4948858;28;90050;-50
2023/04/16 03:59:21;;;;;;;93.38;52.38;;;14.80;69.90;;;;;;4951927;28;89417;-46
2023/04/16 04:01:47;;;;;;;93.65;52.17;;;14.80;70.20;;;;;;4946772;28;89476;-49
2023/04/16 04:04:13;;;;;;;97.15;52.60;;;14.80;69.60;;;;;;4950391;28;90015;-46
2023/04/16 04:06:39;;;;;;;94.22;52.67;;;14.80;69.50;;;;;;4951378;28;89845;-51
2023/04/16 04:09:05;;;;;;;93.28;52.65;;;14.80;69.70;;;;;;4950609;28;89057;-47
2023/04/16 04:11:31;;;;;;;94.72;52.70;;;14.80;69.80;;;;;;4949858;28;90416;-49
2023/04/16 04:13:56;;;;;;;94.10;52.47;;;14.80;69.70;;;;;;4949712;28;89567;-49
2023/04/16 04:16:22;;;;;;;92.22;52.35;;;14.80;69.70;;;;;;4952057;28;90948;-51
2023/04/16 04:18:48;;;;;;;94.03;52.38;;;14.80;69.60;;;;;;4950339;28;90667;-48
2023/04/16 04:21:14;;;;;;;93.93;52.65;;;14.70;69.80;;;;;;4953683;28;94882;-49
2023/04/16 04:23:41;;;;;;;94.22;52.38;;;14.70;69.50;;;;;;4951307;28;90588;-50
2023/04/16 04:26:07;;;;;;;94.22;52.45;;;14.70;69.70;;;;;;4952049;28;90233;-52
2023/04/16 04:28:33;;;;;;;94.05;52.67;;;14.70;69.50;;;;;;4949122;28;91887;-46
2023/04/16 04:30:59;;;;;;;94.80;52.17;;;14.70;69.80;;;;;;4947278;28;94355;-48
2023/04/16 04:33:25;;;;;;;93.15;51.75;;;14.70;69.50;;;;;;4947543;28;88771;-49
2023/04/16 04:35:51;;;;;;;94.95;52.25;;;14.70;69.30;;;;;;4953027;28;89885;-49
2023/04/16 04:38:18;;;;;;;92.95;52.22;;;14.70;69.70;;;;;;4954076;28;92452;-48
2023/04/16 04:40:45;;;;;;;93.65;52.40;;;14.70;69.60;;;;;;4950275;28;90905;-50
2023/04/16 04:43:11;;;;;;;93.43;51.95;;;14.70;69.60;;;;;;4952651;28;95241;-50
2023/04/16 04:45:36;;;;;;;92.80;52.40;;;14.70;69.60;;;;;;4950932;28;90468;-49
2023/04/16 04:48:02;;;;;;;94.13;52.15;;;14.70;69.90;;;;;;4948439;28;89542;-52
2023/04/16 04:50:28;;;;;;;93.47;52.40;;;14.70;69.80;;;;;;4946764;28;97496;-48
2023/04/16 04:52:53;;;;;;;93.25;52.20;;;14.70;69.60;;;;;;4955957;28;92095;-49
2023/04/16 04:55:19;;;;;;;94.20;52.30;;;14.70;69.50;;;;;;4947469;28;90866;-50
2023/04/16 04:57:45;;;;;;;94.63;52.50;;;14.70;69.50;;;;;;4950461;28;89457;-51
2023/04/16 05:00:11;;;;;;;93.38;52.75;;;14.70;69.70;;;;;;4950957;28;89412;-49
2023/04/16 05:02:37;;;;;;;94.45;52.60;;;14.60;69.20;;;;;;4947371;28;89873;-50
2023/04/16 05:05:03;;;;;;;94.10;52.55;;;14.60;69.10;;;;;;4950957;28;90921;-51
2023/04/16 05:07:29;;;;;;;93.40;52.42;;;14.60;69.60;;;;;;4946660;28;90550;-50
2023/04/16 05:09:55;;;;;;;93.85;52.13;;;14.60;69.50;;;;;;4947958;28;90415;-48
2023/04/16 05:12:21;;;;;;;94.25;52.42;;;14.70;69.50;;;;;;4945516;28;89409;-49
2023/04/16 05:14:46;;;;;;;93.95;52.15;;;14.60;69.70;;;;;;4947391;28;90386;-51
2023/04/16 05:17:12;;;;;;;94.32;52.85;;;14.60;69.70;;;;;;4948014;28;90064;-51
2023/04/16 05:19:38;;;;;;;94.57;52.33;;;14.60;69.50;;;;;;4949122;28;89303;-52
2023/04/16 05:22:03;;;;;;;93.45;52.28;;;14.60;69.60;;;;;;4948984;28;88808;-51
2023/04/16 05:24:29;;;;;;;93.07;52.20;;;14.60;69.70;;;;;;4947580;28;90481;-50
2023/04/16 05:26:56;;;;;;;93.00;52.63;;;14.60;69.70;;;;;;4947590;28;89600;-47
2023/04/16 05:29:22;;;;;;;94.20;52.33;;;14.60;69.80;;;;;;4947135;28;91358;-48
2023/04/16 05:31:47;;;;;;;92.50;52.05;;;14.60;69.80;;;;;;4945306;28;91124;-50
2023/04/16 05:34:13;;;;;;;94.85;52.50;;;14.60;69.60;;;;;;4945030;28;91257;-49
2023/04/16 05:36:39;;;;;;;94.32;52.33;;;14.60;69.80;;;;;;4949911;28;91094;-50
2023/04/16 05:39:06;;;;;;;94.35;52.50;;;14.60;69.60;;;;;;4948302;28;89722;-48
2023/04/16 05:41:32;;;;;;;93.53;52.15;;;14.60;69.60;;;;;;4946784;28;89559;-50
2023/04/16 05:43:58;;;;;;;92.70;51.85;;;14.60;69.50;;;;;;4948808;28;89728;-47
2023/04/16 05:46:23;;;;;;;94.90;52.30;;;14.60;69.60;;;;;;4950012;28;88938;-48
2023/04/16 05:48:49;;;;;;;93.90;51.97;;;14.60;69.70;;;;;;4948508;28;90569;-47
2023/04/16 05:51:15;;;;;;;93.90;52.42;;;14.60;69.50;;;;;;4947074;28;94059;-51
2023/04/16 05:53:41;;;;;;;94.80;52.22;;;14.60;69.50;;;;;;4949236;28;95676;-48
2023/04/16 05:56:07;;;;;;;92.35;52.15;;;14.60;69.70;;;;;;4944865;28;90651;-49
2023/04/16 05:58:32;;;;;;;94.60;52.17;;;14.60;69.70;;;;;;4953171;28;95020;-51
2023/04/16 06:00:59;;;;;;;94.82;52.38;;;14.60;69.70;;;;;;4950006;28;89616;-53
2023/04/16 06:03:25;;;;;;;94.95;52.65;;;14.60;69.90;;;;;;4947092;28;90007;-47
2023/04/16 06:05:51;;;;;;;94.30;52.05;;;14.60;69.90;;;;;;4949541;28;89787;-50
2023/04/16 06:08:17;;;;;;;92.78;52.13;;;14.60;69.80;;;;;;4948012;28;89471;-48
2023/04/16 06:10:46;;;;;;;93.38;52.25;;;14.60;69.80;;;;;;4949426;28;91619;-49
2023/04/16 06:13:12;;;;;;;92.75;51.67;;;14.60;69.90;;;;;;4953383;28;90101;-48
2023/04/16 06:15:37;;;;;;;94.28;52.38;;;14.60;69.80;;;;;;4948220;28;90367;-48
2023/04/16 06:18:03;;;;;;;95.70;52.35;;;14.60;69.70;;;;;;4949250;28;90985;-49
2023/04/16 06:20:29;;;;;;;92.88;51.92;;;14.60;69.70;;;;;;4948712;28;89783;-48
2023/04/16 06:22:55;;;;;;;93.47;52.30;;;14.60;69.40;;;;;;4938315;28;89667;-49
2023/04/16 06:25:21;;;;;;;93.90;52.70;;;14.60;69.60;;;;;;4938583;28;92014;-48
2023/04/16 06:27:47;;;;;;;93.07;52.42;;;14.60;69.30;;;;;;4939682;28;90666;-49
2023/04/16 06:30:14;;;;;;;94.30;52.28;;;14.60;69.30;;;;;;4938579;28;89528;-49
2023/04/16 06:32:43;;;;;;;92.97;52.20;;;14.60;69.40;;;;;;4937861;28;91790;-52
2023/04/16 06:35:09;;;;;;;93.80;52.13;;;14.60;69.20;;;;;;4938878;28;90084;-52
2023/04/16 06:37:35;;;;;;;95.15;52.17;;;14.60;69.30;;;;;;4950568;28;89665;-50
2023/04/16 06:40:00;;;;;;;93.75;52.55;;;14.60;69.20;;;;;;4947531;28;90194;-51
2023/04/16 06:42:26;;;;;;;93.35;52.33;;;14.60;69.30;;;;;;4941268;28;92498;-50
2023/04/16 06:44:52;;;;;;;93.35;52.00;;;14.60;69.30;;;;;;4941563;28;90300;-48
2023/04/16 06:47:18;;;;;;;92.68;52.45;;;14.60;69.40;;;;;;4941827;28;90400;-49
2023/04/16 06:49:43;;;;;;;95.68;52.65;;;14.60;69.40;;;;;;4943389;28;90051;-48
2023/04/16 06:52:10;;;;;;;94.00;52.47;;;14.60;69.40;;;;;;4943374;28;89659;-49
2023/04/16 06:54:35;;;;;;;92.80;52.00;;;14.60;69.60;;;;;;4950095;28;95110;-45
2023/04/16 06:57:01;;;;;;;92.32;51.95;;;14.60;69.20;;;;;;4943853;28;90184;-49
2023/04/16 06:59:27;;;;;;;93.45;52.10;;;14.60;69.10;;;;;;4942022;28;90137;-51
2023/04/16 07:01:52;;;;;;;92.50;52.00;;;14.60;69.30;;;;;;4939495;28;89949;-49
2023/04/16 07:04:18;;;;;;;93.68;52.08;;;14.60;69.50;;;;;;4939379;28;89708;-49
2023/04/16 07:06:44;;;;;;;94.68;52.30;;;14.60;69.30;;;;;;4941124;28;95409;-48
2023/04/16 07:09:09;;;;;;;94.78;52.35;;;14.60;69.60;;;;;;4941956;28;92292;-52
2023/04/16 07:11:35;;;;;;;95.60;52.53;;;14.60;69.20;;;;;;4939319;28;89914;-51
2023/04/16 07:14:01;;;;;;;95.28;52.55;;;14.60;69.70;;;;;;4946476;28;90141;-49
2023/04/16 07:16:26;;;;;;;96.10;52.40;;;14.60;69.60;;;;;;4948779;28;89775;-49
2023/04/16 07:18:52;;;;;;;96.32;52.40;;;14.60;69.00;;;;;;4941405;28;92086;-47
2023/04/16 07:21:18;;;;;;;94.47;52.30;;;14.70;69.20;;;;;;4947907;28;92158;-54
2023/04/16 07:23:44;;;;;;;94.90;52.25;;;14.70;69.20;;;;;;4951052;28;89239;-52
2023/04/16 07:26:10;;;;;;;93.18;52.15;;;14.70;69.10;;;;;;4944659;28;89945;-50
2023/04/16 07:28:36;;;;;;;95.28;52.35;;;14.60;69.00;;;;;;4948794;28;89628;-50
2023/04/16 07:31:02;;;;;;;94.97;52.38;;;14.70;69.20;;;;;;4941285;28;92925;-52
2023/04/16 07:33:28;;;;;;;99.95;52.78;;;14.70;69.00;;;;;;4944013;28;90053;-50
2023/04/16 07:35:53;;;;;;;97.25;52.65;;;14.70;68.90;;;;;;4946356;28;90047;-48
2023/04/16 07:38:19;;;;;;;94.75;52.30;;;14.70;69.30;;;;;;4951325;28;90131;-48
2023/04/16 07:40:45;;;;;;;98.10;53.08;;;14.60;69.20;;;;;;4939068;28;92145;-50
2023/04/16 07:43:11;;;;;;;96.88;52.80;;;14.70;69.50;;;;;;4940711;28;89500;-51
2023/04/16 07:45:36;;;;;;;96.53;52.58;;;14.70;70.00;;;;;;4939067;28;94039;-48
2023/04/16 07:48:02;;;;;;;94.63;52.22;;;14.70;70.00;;;;;;4943489;28;88507;-50
2023/04/16 07:50:28;;;;;;;99.88;52.47;;;14.70;70.40;;;;;;4941403;28;94158;-49
2023/04/16 07:52:53;;;;;;;99.90;53.08;;;14.70;70.20;;;;;;4939521;28;96689;-52
2023/04/16 07:55:19;;;;;;;98.32;52.47;;;14.70;70.70;;;;;;4943726;28;90662;-49
2023/04/16 07:57:45;;;;;;;97.93;52.63;;;14.70;70.60;;;;;;4946681;28;91977;-50
2023/04/16 08:00:11;;;;;;;98.47;52.78;;;14.70;70.70;;;;;;4941548;28;89960;-48
2023/04/16 08:02:37;;;;;;;94.25;52.28;;;14.80;71.20;;;;;;4942613;28;93787;-48
2023/04/16 08:05:03;;;;;;;96.35;52.35;;;14.80;70.90;;;;;;4943372;28;95269;-52
2023/04/16 08:07:28;;;;;;;98.38;52.55;;;14.80;70.80;;;;;;4956212;28;91294;-47
2023/04/16 08:09:54;;;;;;;95.90;52.58;;;14.80;70.90;;;;;;4950611;28;92072;-49
2023/04/16 08:12:20;;;;;;;95.85;52.60;;;14.80;70.40;;;;;;4949298;28;91295;-61
2023/04/16 08:14:47;;;;;;;97.72;53.15;;;14.80;70.30;;;;;;4946896;28;90065;-57
2023/04/16 08:17:14;;;;;;;98.32;52.47;;;14.90;71.50;;;;;;4940497;28;90475;-60
2023/04/16 08:19:41;;;;;;;103.03;52.78;;;14.90;72.40;;;;;;4945735;28;93230;-58
2023/04/16 08:22:07;;;;;;;98.72;52.63;;;14.90;72.70;;;;;;4947510;28;91372;-59
2023/04/16 08:24:34;;;;;;;97.97;52.83;;;15.00;72.60;;;;;;4944332;28;92008;-48
2023/04/16 08:27:02;;;;;;;101.65;53.08;;;15.00;72.80;;;;;;4934438;28;91771;-51
2023/04/16 08:29:28;;;;;;;100.18;53.28;;;15.00;73.40;;;;;;4937988;28;91723;-46
2023/04/16 08:31:54;;;;;;;100.10;52.83;;;15.10;72.90;;;;;;4944798;28;90353;-61
2023/04/16 08:34:20;;;;;;;100.80;53.38;;;15.10;72.50;;;;;;4946680;28;92891;-61
2023/04/16 08:36:47;;;;;;;103.00;53.10;;;15.10;72.10;;;;;;4941796;28;95121;-53
2023/04/16 08:39:13;;;;;;;101.10;52.85;;;15.00;71.70;;;;;;4952143;28;89965;-62
2023/04/16 08:41:45;;;;;;;100.00;53.05;;;15.10;72.10;;;;;;4943088;28;90545;-53
2023/04/16 08:44:26;;;;;;;102.30;53.33;;;15.10;71.60;;;;;;4918047;28;91934;-43
2023/04/16 08:46:57;;;;;;;100.00;52.72;;;15.10;72.60;;;;;;4944831;28;93150;-57
2023/04/16 08:49:24;;;;;;;99.70;52.95;;;15.10;72.70;;;;;;4946282;28;95349;-44
2023/04/16 08:51:55;;;;;;;98.13;52.95;;;15.10;71.80;;;;;;4951091;28;90414;-51
2023/04/16 08:55:03;;;;;;;98.55;53.05;;;15.20;72.20;;;;;;4951524;28;89588;-50
2023/04/16 08:57:37;;;;;;;99.55;52.75;;;15.20;72.30;;;;;;4945795;28;91033;-56
2023/04/16 09:00:10;;;;;;;99.65;52.97;;;15.30;72.40;;;;;;4945216;28;92073;-56
2023/04/16 09:02:36;;;;;;;98.93;53.08;;;15.20;71.00;;;;;;4945974;28;90139;-57
2023/04/16 09:05:06;;;;;;;101.88;53.50;;;15.20;70.70;;;;;;4947118;28;90156;-54
2023/04/16 09:07:33;;;;;;;100.28;52.95;;;15.20;71.20;;;;;;4939789;28;90395;-53
2023/04/16 09:10:00;;;;;;;101.95;53.20;;;15.20;71.20;;;;;;4924655;28;94088;-54
2023/04/16 09:12:26;;;;;;;105.65;53.05;;;15.20;69.90;;;;;;4940312;28;90660;-56
2023/04/16 09:14:53;;;;;;;104.65;53.78;;;15.20;69.50;;;;;;4953599;28;89713;-56
2023/04/16 09:17:20;;;;;;;99.40;53.15;;;15.20;69.40;;;;;;4933460;28;90403;-55
2023/04/16 09:19:46;;;;;;;102.88;53.40;;;15.20;69.30;;;;;;4944074;28;90071;-57
2023/04/16 09:22:12;;;;;;;100.28;52.90;;;15.30;69.70;;;;;;4940085;28;91393;-54
2023/04/16 09:24:38;;;;;;;101.50;53.67;;;15.30;69.80;;;;;;4937651;28;90011;-57
2023/04/16 09:27:04;;;;;;;100.00;53.20;;;15.30;69.00;;;;;;4940555;28;89649;-54
2023/04/16 09:29:39;;;;;;;96.90;52.50;;;15.30;69.50;;;;;;4941285;28;91516;-56
2023/04/16 09:32:07;;;;;;;100.07;53.00;;;15.30;69.70;;;;;;4950052;28;90561;-58
2023/04/16 09:34:52;;;;;;;99.95;53.33;;;15.30;69.20;;;;;;4945099;28;90634;-55
2023/04/16 09:37:18;;;;;;;98.82;53.25;;;15.30;69.00;;;;;;4942712;28;89768;-55
2023/04/16 09:39:54;;;;;;;97.30;52.95;;;15.30;69.40;;;;;;4946250;28;89690;-57
2023/04/16 09:42:22;;;;;;;99.20;53.40;;;15.40;70.00;;;;;;4941875;28;89895;-58
2023/04/16 09:44:49;;;;;;;97.65;53.22;;;15.40;68.70;;;;;;4940956;28;90033;-54
2023/04/16 09:47:17;;;;;;;97.78;53.50;;;15.40;69.10;;;;;;4942978;28;98178;-57
2023/04/16 09:49:43;;;;;;;97.20;53.15;;;15.40;69.80;;;;;;4945178;28;90251;-58
2023/04/16 09:52:14;;;;;;;97.20;53.63;;;15.40;69.30;;;;;;4938532;28;90119;-55
2023/04/16 09:55:09;;;;;;;98.68;53.50;;;15.40;69.30;;;;;;4941354;28;89997;-56
2023/04/16 09:57:36;;;;;;;99.50;53.08;;;15.40;69.30;;;;;;4939565;28;91983;-55
2023/04/16 10:00:08;;;;;;;99.40;53.35;;;15.40;69.90;;;;;;4941926;28;91620;-54
2023/04/16 10:02:34;;;;;;;99.00;53.50;;;15.40;69.50;;;;;;4940291;28;90829;-56
2023/04/16 10:05:04;;;;;;;99.88;53.33;;;15.40;70.10;;;;;;4935464;28;91572;-58
2023/04/16 10:07:34;;;;;;;99.18;53.13;;;15.40;69.80;;;;;;4933021;28;90402;-57
2023/04/16 10:10:00;;;;;;;98.22;52.95;;;15.30;68.90;;;;;;4934213;28;91221;-53
2023/04/16 10:12:27;;;;;;;98.45;53.00;;;15.40;69.40;;;;;;4934106;28;92911;-57
2023/04/16 10:14:53;;;;;;;96.70;52.80;;;15.40;69.30;;;;;;4938789;28;89880;-57
2023/04/16 10:17:20;;;;;;;100.63;53.03;;;15.40;68.90;;;;;;4943422;28;91257;-54
2023/04/16 10:19:46;;;;;;;95.25;52.53;;;15.40;68.60;;;;;;4943863;28;89800;-55
2023/04/16 10:22:11;;;;;;;98.60;52.88;;;15.40;69.00;;;;;;4941362;28;89469;-57
2023/04/16 10:24:39;;;;;;;97.47;53.25;;;15.50;69.00;;;;;;4940510;28;90883;-54
2023/04/16 10:27:05;;;;;;;100.50;53.35;;;15.50;69.00;;;;;;4940823;28;94889;-57
2023/04/16 10:29:31;;;;;;;97.55;53.33;;;15.50;68.90;;;;;;4941429;28;91331;-56
2023/04/16 10:31:58;;;;;;;97.82;53.25;;;15.50;68.70;;;;;;4941786;28;89846;-58
2023/04/16 10:34:25;;;;;;;97.05;53.08;;;15.50;68.60;;;;;;4940657;28;93301;-57
2023/04/16 10:36:52;;;;;;;97.30;53.10;;;15.50;68.70;;;;;;4938826;28;89395;-53
2023/04/16 10:39:20;;;;;;;98.32;53.03;;;15.50;68.80;;;;;;4944808;28;90289;-56
2023/04/16 10:41:46;;;;;;;99.05;53.35;;;15.50;69.00;;;;;;4941464;28;93305;-55
2023/04/16 10:44:12;;;;;;;98.20;52.80;;;15.50;69.20;;;;;;4938574;28;89972;-52
2023/04/16 10:46:43;;;;;;;96.57;53.20;;;15.50;69.10;;;;;;4934486;28;90230;-57
2023/04/16 10:49:22;;;;;;;97.93;53.15;;;15.50;68.60;;;;;;4942536;28;91427;-53
2023/04/16 10:51:57;;;;;;;101.13;53.00;;;15.50;68.90;;;;;;4940241;28;90069;-55
2023/04/16 10:54:25;;;;;;;98.45;53.20;;;15.50;69.30;;;;;;4967965;27;90340;-54
2023/04/16 10:56:52;;;;;;;98.10;53.35;;;15.60;69.50;;;;;;4939600;28;93294;-52
2023/04/16 10:59:19;;;;;;;98.10;53.58;;;15.60;70.80;;;;;;4941485;28;90225;-58
2023/04/16 11:01:47;;;;;;;99.40;53.85;;;15.60;70.30;;;;;;4936070;28;89606;-56
2023/04/16 11:04:18;;;;;;;102.22;53.70;;;15.50;70.00;;;;;;4935141;28;90006;-52
2023/04/16 11:06:59;;;;;;;;;;;15.50;70.60;;;;;;4940447;28;89665;-55
2023/04/16 11:09:59;;;;;;;99.33;52.93;;;15.50;67.20;;;;;;4944729;28;90349;-55
2023/04/16 11:12:39;;;;;;;101.78;53.15;;;15.60;67.40;;;;;;4943678;28;89718;-53
2023/04/16 11:15:06;;;;;;;101.18;53.28;;;15.60;66.80;;;;;;4942730;28;92441;-54
2023/04/16 11:17:39;;;;;;;101.05;53.10;;;15.70;66.60;;;;;;4942459;28;94543;-55
2023/04/16 11:20:06;;;;;;;100.97;53.20;;;15.70;66.30;;;;;;4943766;28;90370;-54
2023/04/16 11:22:35;;;;;;;99.85;52.72;;;15.70;66.00;;;;;;4942969;28;94233;-53
2023/04/16 11:25:01;;;;;;;99.13;53.00;;;15.70;66.00;;;;;;4938209;28;92473;-50
2023/04/16 11:27:30;;;;;;;99.22;53.30;;;15.70;66.10;;;;;;4938468;28;91463;-56
2023/04/16 11:30:08;;;;;;;98.57;52.95;;;15.70;66.10;;;;;;4945128;28;90669;-53
2023/04/16 11:32:35;;;;;;;97.90;52.95;;;15.80;65.90;;;;;;4949000;28;93143;-55
2023/04/16 11:35:04;;;;;;;97.68;53.25;;;15.70;65.90;;;;;;4940762;28;89484;-57
2023/04/16 11:37:39;;;;;;;100.80;53.15;;;15.80;65.70;;;;;;4947886;28;89821;-54
2023/04/16 11:40:06;;;;;;;98.50;52.90;;;15.80;65.70;;;;;;4948730;28;91270;-56
2023/04/16 11:42:35;;;;;;;99.05;52.90;;;15.80;65.40;;;;;;4948946;28;91998;-55
2023/04/16 11:45:02;;;;;;;99.70;53.25;;;15.80;65.30;;;;;;4946627;28;89488;-56
2023/04/16 11:47:30;;;;;;;99.43;53.30;;;15.90;64.90;;;;;;4945025;28;89667;-55
2023/04/16 11:49:56;;;;;;;99.20;53.17;;;15.90;65.70;;;;;;4938519;28;90019;-55
2023/04/16 11:52:30;;;;;;;100.20;53.45;;;15.80;66.10;;;;;;4939049;28;89746;-56
2023/04/16 11:54:57;;;;;;;100.38;53.55;;;15.90;65.60;;;;;;4940894;28;92374;-54
2023/04/16 11:57:27;;;;;;;99.72;53.35;;;15.90;65.80;;;;;;4934632;28;91312;-55
2023/04/16 11:59:53;;;;;;;99.55;53.42;;;15.90;65.90;;;;;;4942294;28;89480;-54
2023/04/16 12:02:38;;;;;;;98.72;53.15;;;15.90;65.70;;;;;;4939822;28;92320;-55
2023/04/16 12:05:24;;;;;;;99.88;53.50;;;15.90;65.40;;;;;;4940897;28;91790;-55
2023/04/16 12:07:50;;;;;;;101.78;53.60;;;15.90;65.40;;;;;;4944276;28;90879;-56
2023/04/16 12:10:15;;;;;;;97.60;53.15;;;15.90;65.30;;;;;;4936982;28;90903;-56
2023/04/16 12:12:41;;;;;;;97.25;53.15;;;15.90;65.10;;;;;;4943543;28;93324;-50
2023/04/16 12:15:07;;;;;;;100.18;53.28;;;15.90;65.20;;;;;;4939857;28;90430;-54
2023/04/16 12:17:34;;;;;;;96.63;52.72;;;15.90;65.00;;;;;;4936210;28;89989;-59
2023/04/16 12:20:08;;;;;;;99.03;52.92;;;15.90;65.10;;;;;;4932425;28;95414;-55
2023/04/16 12:22:35;;;;;;;98.85;53.35;;;16.00;65.10;;;;;;4952724;28;97110;-56
2023/04/16 12:25:13;;;;;;;98.80;53.10;;;16.00;65.70;;;;;;4942140;28;89434;-56